Terminal Aerodrome Forecast
Issued by NWS

Home | Current Version | Previous Version | Text Only | Print | Product List | Glossary On
Versions: 1 2 3 4 5 6 7 8 9 10 11 12 13 14 15 16 17 18 19
000
FTUS46 KLOX 311011 AAA
TAFLGB
TAF AMD
KLGB 311011Z 3110/0106 VRB03KT P6SM BKN022
     FM311600 VRB03KT P6SM SCT025
     FM311900 17008KT P6SM SCT100
     FM312300 30008KT P6SM SCT100
     FM010400 VRB03KT P6SM SCT100=

USA.gov is the U.S. government's official web portal to all federal, state and local government web resources and services.